Time;durP1;ratioP1;P1;durP2;ratioP2;P2;SDS_P1;SDS_P2;PMS_P1;PMS_P2;Temp;Humidity;BMP_temperature;BMP_pressure;BME280_temperature;BME280_humidity;BME280_pressure;Samples;Min_cycle;Max_cycle;Signal;HPM_P1;HPM_P2
2023/03/29 00:07:22;;;;;;;3.65;2.38;;;1.00;82.50;;;;;;20422825;29;20043;-51
2023/03/29 00:17:24;;;;;;;4.72;2.22;;;1.80;81.60;;;;;;20421388;29;20040;-51
2023/03/29 00:27:25;;;;;;;5.78;2.60;;;1.60;82.70;;;;;;20415296;29;20039;-53
2023/03/29 00:37:28;;;;;;;4.35;2.15;;;1.20;84.60;;;;;;20420303;29;20023;-45
2023/03/29 00:47:41;;;;;;;3.72;1.88;;;0.90;85.20;;;;;;20419616;29;20042;-52
2023/03/29 00:57:45;;;;;;;6.82;2.45;;;1.00;82.80;;;;;;20402232;29;20083;-52
2023/03/29 01:07:56;;;;;;;6.55;3.05;;;1.90;81.70;;;;;;20443797;29;20075;-52
2023/03/29 01:18:00;;;;;;;3.92;1.83;;;1.80;82.20;;;;;;20429115;29;20040;-51
2023/03/29 01:28:11;;;;;;;2.38;1.40;;;1.50;82.60;;;;;;20395909;29;20102;-53
2023/03/29 01:38:18;;;;;;;1.45;0.75;;;1.40;81.60;;;;;;20416974;29;20086;-51
2023/03/29 01:48:43;;;;;;;2.25;1.70;;;1.80;78.80;;;;;;20457649;29;20105;-50
2023/03/29 01:58:48;;;;;;;6.25;2.28;;;1.70;80.30;;;;;;20470526;29;20091;-51
2023/03/29 02:08:52;;;;;;;3.25;2.03;;;1.10;84.10;;;;;;20414918;29;20048;-51
2023/03/29 02:18:55;;;;;;;1.98;1.25;;;0.60;86.80;;;;;;20407992;29;20537;-51
2023/03/29 02:28:57;;;;;;;3.72;1.20;;;0.30;84.90;;;;;;20428310;29;20397;-53
2023/03/29 02:39:03;;;;;;;4.72;0.90;;;0.80;81.50;;;;;;20412289;29;20433;-50
2023/03/29 02:49:07;;;;;;;2.67;0.70;;;2.50;71.30;;;;;;20426816;29;20039;-54
2023/03/29 02:59:13;;;;;;;0.82;0.50;;;3.40;70.40;;;;;;20410238;29;20040;-47
2023/03/29 03:09:15;;;;;;;0.90;0.50;;;3.50;68.70;;;;;;20462607;29;20051;-50
2023/03/29 03:19:20;;;;;;;1.02;0.60;;;3.40;70.80;;;;;;20422313;29;20390;-53
2023/03/29 03:29:23;;;;;;;2.25;1.67;;;3.20;71.40;;;;;;20405459;29;20469;-53
2023/03/29 03:39:46;;;;;;;3.72;1.92;;;3.00;73.40;;;;;;20407511;29;20439;-53
2023/03/29 03:49:48;;;;;;;3.92;2.40;;;2.50;75.50;;;;;;20446607;29;20566;-54
2023/03/29 03:59:52;;;;;;;6.50;2.40;;;2.60;77.40;;;;;;20456602;29;20043;-51
2023/03/29 04:10:01;;;;;;;3.85;2.50;;;1.90;79.70;;;;;;20405009;29;20055;-51
2023/03/29 04:20:10;;;;;;;5.40;3.08;;;1.10;82.40;;;;;;20416161;29;20040;-54
2023/03/29 04:30:13;;;;;;;11.20;3.30;;;0.80;86.10;;;;;;20419509;29;20114;-53
2023/03/29 04:40:45;;;;;;;5.13;2.67;;;0.60;87.30;;;;;;20419106;29;20079;-54
2023/03/29 04:50:55;;;;;;;3.50;2.30;;;0.80;85.50;;;;;;20402860;29;20450;-53
2023/03/29 05:00:57;;;;;;;2.80;1.70;;;0.70;86.30;;;;;;20416770;29;20036;-53
2023/03/29 05:11:12;;;;;;;4.68;2.72;;;1.00;87.00;;;;;;20426122;29;20031;-54
2023/03/29 05:21:15;;;;;;;4.53;2.40;;;1.80;83.70;;;;;;20452809;28;20046;-53
2023/03/29 05:31:19;;;;;;;3.08;2.03;;;1.40;84.40;;;;;;20421682;29;20434;-51
2023/03/29 05:41:25;;;;;;;4.25;1.85;;;1.00;87.20;;;;;;20429312;29;20087;-52
2023/03/29 05:51:45;;;;;;;4.53;2.30;;;0.70;90.20;;;;;;20504607;29;20035;-53
2023/03/29 06:01:46;;;;;;;6.00;2.00;;;0.70;90.00;;;;;;20444632;29;20051;-51
2023/03/29 06:11:50;;;;;;;2.05;0.73;;;0.90;87.60;;;;;;20429702;29;20068;-52
2023/03/29 06:22:18;;;;;;;1.42;0.47;;;1.50;88.50;;;;;;20405770;29;20051;-47
2023/03/29 06:32:19;;;;;;;3.63;0.73;;;3.00;84.20;;;;;;20408116;29;20047;-54
2023/03/29 06:42:41;;;;;;;1.50;0.80;;;3.20;84.10;;;;;;20433443;29;20115;-53
2023/03/29 06:53:06;;;;;;;2.47;1.13;;;3.30;84.00;;;;;;20499770;29;20066;-54
2023/03/29 07:03:12;;;;;;;4.75;1.95;;;3.90;82.20;;;;;;20432038;29;20395;-50
2023/03/29 07:13:14;;;;;;;3.95;2.08;;;4.60;81.60;;;;;;20409939;29;20036;-52
2023/03/29 07:23:17;;;;;;;2.78;1.85;;;4.80;77.40;;;;;;20420505;29;20039;-52
2023/03/29 07:33:20;;;;;;;2.63;1.73;;;4.40;75.80;;;;;;20418038;29;20477;-55
2023/03/29 07:43:33;;;;;;;3.50;2.00;;;5.10;78.80;;;;;;20457147;28;20035;-55
2023/03/29 07:53:35;;;;;;;3.08;1.95;;;6.40;76.70;;;;;;20423696;29;20058;-55
2023/03/29 08:03:41;;;;;;;2.75;1.70;;;7.30;76.30;;;;;;20405763;29;20051;-46
2023/03/29 08:13:43;;;;;;;5.75;1.90;;;7.60;73.90;;;;;;20463472;29;20437;-54
2023/03/29 08:23:50;;;;;;;2.67;1.60;;;8.00;74.50;;;;;;20416421;29;20043;-54
2023/03/29 08:34:11;;;;;;;2.50;1.63;;;8.30;75.20;;;;;;20399682;29;20047;-54
2023/03/29 08:45:19;;;;;;;2.30;1.70;;;8.90;71.40;;;;;;20388444;29;20051;-55
2023/03/29 08:55:27;;;;;;;2.72;1.75;;;8.90;70.60;;;;;;20451100;28;20047;-55
2023/03/29 09:06:11;;;;;;;4.28;2.38;;;8.70;71.60;;;;;;20494431;29;20043;-53
2023/03/29 09:16:25;;;;;;;3.35;2.33;;;9.40;73.30;;;;;;20415945;29;20100;-53
2023/03/29 09:26:44;;;;;;;2.78;2.47;;;9.80;74.50;;;;;;20412011;29;20028;-55
2023/03/29 09:37:09;;;;;;;3.78;2.40;;;10.00;74.10;;;;;;20396396;29;20032;-46
2023/03/29 09:47:30;;;;;;;6.35;2.65;;;9.90;73.10;;;;;;20416907;29;20036;-54
2023/03/29 09:57:34;;;;;;;4.60;2.40;;;10.40;69.00;;;;;;20474994;29;20102;-53
2023/03/29 10:07:45;;;;;;;4.00;3.17;;;10.40;76.30;;;;;;20409399;29;20103;-52
2023/03/29 10:17:58;;;;;;;4.75;3.40;;;10.70;73.10;;;;;;20413704;29;20035;-52
2023/03/29 10:28:12;;;;;;;6.47;3.38;;;10.80;72.70;;;;;;20463188;29;20361;-46
2023/03/29 10:38:17;;;;;;;6.93;4.10;;;10.60;74.40;;;;;;20415505;29;20035;-49
2023/03/29 10:48:24;;;;;;;5.97;4.65;;;10.80;76.70;;;;;;20429505;29;20028;-53
2023/03/29 10:59:08;;;;;;;8.50;5.45;;;11.50;78.50;;;;;;20428632;29;20032;-52
2023/03/29 11:09:48;;;;;;;8.05;5.72;;;11.70;82.00;;;;;;20462939;29;20047;-47
2023/03/29 11:20:09;;;;;;;;;;;11.80;81.20;;;;;;20422559;29;20039;-46
2023/03/29 11:30:29;;;;;;;7.53;5.87;;;11.80;83.00;;;;;;20424764;29;19915;-50
2023/03/29 11:40:43;;;;;;;8.43;6.50;;;11.80;80.50;;;;;;20424594;29;20040;-52
2023/03/29 11:51:02;;;;;;;8.05;6.50;;;11.90;84.90;;;;;;20455214;29;20114;-50
2023/03/29 12:01:09;;;;;;;7.85;6.00;;;12.20;86.20;;;;;;20454767;29;20080;-51
2023/03/29 12:11:29;;;;;;;9.13;6.70;;;12.60;85.70;;;;;;20422359;29;20258;-51
2023/03/29 12:21:32;;;;;;;;;;;12.20;87.80;;;;;;20426834;29;20035;-48
2023/03/29 12:31:51;;;;;;;15.23;6.22;;;12.40;90.40;;;;;;20430130;28;20330;-49
2023/03/29 12:42:25;;;;;;;7.32;5.00;;;12.40;91.20;;;;;;20397272;29;20035;-50
2023/03/29 12:53:25;;;;;;;9.90;4.95;;;12.50;92.00;;;;;;20399534;29;20048;-55
2023/03/29 13:03:34;;;;;;;10.00;4.32;;;12.10;92.00;;;;;;20419712;29;20048;-50
2023/03/29 13:13:39;;;;;;;9.63;4.20;;;10.90;93.30;;;;;;20461668;29;20068;-49
2023/03/29 13:24:25;;;;;;;10.65;4.60;;;10.40;94.50;;;;;;20413660;29;20495;-52
2023/03/29 13:34:35;;;;;;;8.13;4.50;;;11.40;95.70;;;;;;20174853;29;20041;-46
2023/03/29 13:44:47;;;;;;;9.95;4.70;;;12.60;93.50;;;;;;20187007;29;20065;-48
2023/03/29 13:55:07;;;;;;;10.57;5.07;;;13.00;92.70;;;;;;20112927;29;20078;-51
2023/03/29 14:05:14;;;;;;;11.37;5.10;;;12.80;91.70;;;;;;20237223;29;20052;-51
2023/03/29 14:15:26;;;;;;;9.60;5.63;;;12.50;93.40;;;;;;20352384;29;20091;-47
2023/03/29 14:25:28;;;;;;;9.70;5.65;;;12.60;93.80;;;;;;20384017;29;20028;-51
2023/03/29 14:35:31;;;;;;;8.95;5.68;;;12.30;93.00;;;;;;20351230;29;20036;-51
2023/03/29 14:45:33;;;;;;;11.50;6.30;;;11.80;92.80;;;;;;20350256;29;20032;-47
2023/03/29 14:55:37;;;;;;;13.40;6.32;;;11.30;93.30;;;;;;20349384;29;20055;-51
2023/03/29 15:05:42;;;;;;;12.00;7.10;;;10.90;94.00;;;;;;20403696;29;20050;-55
2023/03/29 15:15:45;;;;;;;13.75;6.93;;;10.60;93.90;;;;;;20438170;29;20558;-50
2023/03/29 15:25:52;;;;;;;10.05;6.07;;;10.10;94.30;;;;;;20466240;29;20370;-50
2023/03/29 15:35:54;;;;;;;10.77;6.18;;;9.60;95.40;;;;;;20446472;29;20365;-52
2023/03/29 15:45:56;;;;;;;11.60;5.60;;;9.00;96.80;;;;;;20433572;29;20102;-45
2023/03/29 15:56:00;;;;;;;10.20;5.55;;;8.60;97.70;;;;;;20466122;29;20032;-54
2023/03/29 16:06:02;;;;;;;10.05;5.55;;;8.10;98.00;;;;;;20422289;29;20056;-54
2023/03/29 16:16:05;;;;;;;11.38;6.07;;;7.70;99.00;;;;;;20423050;29;20063;-54
2023/03/29 16:26:07;;;;;;;11.05;5.63;;;7.10;99.90;;;;;;20454062;29;20036;-55
2023/03/29 16:36:09;;;;;;;13.30;6.85;;;6.60;99.90;;;;;;20442037;29;20109;-55
2023/03/29 16:46:12;;;;;;;13.82;6.35;;;6.10;99.90;;;;;;20427580;29;20435;-46
2023/03/29 16:56:14;;;;;;;16.25;6.38;;;5.70;99.90;;;;;;20462349;29;20443;-53
2023/03/29 17:06:16;;;;;;;15.10;7.50;;;5.40;99.90;;;;;;20420131;29;20505;-53
2023/03/29 17:16:17;;;;;;;16.10;7.60;;;5.30;99.90;;;;;;20428098;29;20047;-48
2023/03/29 17:26:19;;;;;;;14.38;7.82;;;4.90;99.90;;;;;;20467660;29;20059;-52
2023/03/29 17:36:22;;;;;;;17.23;7.07;;;5.20;99.90;;;;;;20435339;29;20067;-54
2023/03/29 17:46:25;;;;;;;11.75;6.82;;;5.00;99.90;;;;;;20433737;29;20536;-50
2023/03/29 17:56:27;;;;;;;15.23;7.85;;;4.30;99.90;;;;;;20415762;29;20039;-52
2023/03/29 18:06:28;;;;;;;16.17;7.85;;;4.00;99.90;;;;;;20446280;29;20079;-53
2023/03/29 18:16:30;;;;;;;18.08;7.63;;;3.80;99.90;;;;;;20459530;29;20383;-53
2023/03/29 18:26:32;;;;;;;14.48;8.20;;;3.70;99.90;;;;;;20424422;29;20043;-54
2023/03/29 18:36:33;;;;;;;19.25;8.55;;;3.50;99.90;;;;;;20429761;29;20408;-50
2023/03/29 18:46:35;;;;;;;17.38;9.48;;;3.30;99.90;;;;;;20443796;29;20027;-53
2023/03/29 18:56:37;;;;;;;18.90;10.00;;;3.20;99.90;;;;;;20495647;29;20040;-49
2023/03/29 19:06:40;;;;;;;20.73;10.10;;;3.10;99.90;;;;;;20427695;29;20139;-51
2023/03/29 19:16:42;;;;;;;18.60;8.30;;;3.30;99.90;;;;;;20426580;29;20039;-53
2023/03/29 19:26:44;;;;;;;22.58;9.30;;;3.80;99.90;;;;;;20458351;29;20394;-53
2023/03/29 19:36:45;;;;;;;20.45;9.38;;;3.80;99.90;;;;;;20424347;29;20083;-49
2023/03/29 19:46:47;;;;;;;18.70;9.23;;;3.80;99.90;;;;;;20424348;29;20083;-51
2023/03/29 19:56:50;;;;;;;19.15;9.32;;;3.50;99.90;;;;;;20423649;29;20075;-54
2023/03/29 20:06:52;;;;;;;19.15;10.40;;;3.10;99.90;;;;;;20440074;29;20504;-48
2023/03/29 20:16:55;;;;;;;26.10;11.30;;;3.00;99.90;;;;;;20447140;29;20146;-50
2023/03/29 20:26:57;;;;;;;19.95;11.07;;;2.90;99.90;;;;;;20416314;29;20028;-49
2023/03/29 20:36:59;;;;;;;24.42;11.35;;;2.90;99.90;;;;;;20420947;29;20432;-46
2023/03/29 20:47:02;;;;;;;23.42;11.38;;;2.90;99.90;;;;;;20438522;28;20490;-46
2023/03/29 20:57:05;;;;;;;20.55;11.43;;;3.00;99.90;;;;;;20484263;29;20493;-46
2023/03/29 21:07:07;;;;;;;19.92;12.15;;;2.90;99.90;;;;;;20419970;29;20043;-53
2023/03/29 21:17:09;;;;;;;23.83;11.30;;;3.10;99.90;;;;;;20418723;29;20058;-45
2023/03/29 21:27:10;;;;;;;24.67;12.20;;;3.10;99.90;;;;;;20451224;29;20031;-53
2023/03/29 21:37:12;;;;;;;22.85;14.18;;;3.10;99.90;;;;;;20418511;29;20099;-50
2023/03/29 21:47:14;;;;;;;29.73;15.40;;;3.00;99.90;;;;;;20418840;29;20065;-51
2023/03/29 21:57:15;;;;;;;27.05;14.57;;;3.00;99.90;;;;;;20418021;29;20036;-50
2023/03/29 22:07:17;;;;;;;29.40;15.20;;;3.00;99.90;;;;;;20451815;29;20051;-53
2023/03/29 22:17:18;;;;;;;31.98;15.23;;;2.90;99.90;;;;;;20396581;29;20040;-51
2023/03/29 22:27:21;;;;;;;32.72;14.65;;;2.90;99.90;;;;;;20425089;29;20032;-52
2023/03/29 22:37:23;;;;;;;29.83;14.95;;;2.90;99.90;;;;;;20429943;29;20066;-53
2023/03/29 22:47:24;;;;;;;31.58;15.80;;;3.00;99.90;;;;;;20450257;29;20031;-53
2023/03/29 22:57:26;;;;;;;24.73;15.43;;;2.90;99.90;;;;;;20488903;29;20075;-53
2023/03/29 23:07:27;;;;;;;34.20;18.17;;;2.90;99.90;;;;;;20427604;29;20043;-50
2023/03/29 23:17:29;;;;;;;30.33;18.20;;;2.80;99.90;;;;;;20426308;29;20417;-51
2023/03/29 23:27:31;;;;;;;24.38;14.77;;;3.00;99.90;;;;;;20458303;29;20475;-51
2023/03/29 23:37:33;;;;;;;27.25;15.52;;;3.00;99.90;;;;;;20425525;29;20051;-50
2023/03/29 23:47:35;;;;;;;31.52;16.98;;;3.20;99.90;;;;;;20424164;29;20452;-49
2023/03/29 23:57:37;;;;;;;30.35;17.20;;;3.30;99.90;;;;;;20424152;29;20437;-51
